sensor_id;sensor_type;location;lat;lon;timestamp;pressure;altitude;pressure_sealevel;temperature;humidity
62031;BME280;62035;52.094;5.112;2023-04-25T00:01:29;101208.47;;;7.33;100.00
62031;BME280;62035;52.094;5.112;2023-04-25T00:03:58;101211.13;;;7.45;100.00
62031;BME280;62035;52.094;5.112;2023-04-25T00:06:26;101222.22;;;7.50;100.00
62031;BME280;62035;52.094;5.112;2023-04-25T00:08:54;101211.13;;;7.45;100.00
62031;BME280;62035;52.094;5.112;2023-04-25T00:11:24;101211.38;;;7.30;100.00
62031;BME280;62035;52.094;5.112;2023-04-25T00:13:51;101213.56;;;7.48;100.00
62031;BME280;62035;52.094;5.112;2023-04-25T00:16:20;101206.88;;;7.20;100.00
62031;BME280;62035;52.094;5.112;2023-04-25T00:18:47;101210.38;;;7.20;100.00
62031;BME280;62035;52.094;5.112;2023-04-25T00:21:17;101213.03;;;7.09;100.00
62031;BME280;62035;52.094;5.112;2023-04-25T00:23:45;101216.06;;;7.27;100.00
62031;BME280;62035;52.094;5.112;2023-04-25T00:26:13;101214.25;;;7.16;100.00
62031;BME280;62035;52.094;5.112;2023-04-25T00:28:42;101211.31;;;6.97;100.00
62031;BME280;62035;52.094;5.112;2023-04-25T00:31:09;101208.56;;;6.98;100.00
62031;BME280;62035;52.094;5.112;2023-04-25T00:33:37;101223.59;;;6.98;100.00
62031;BME280;62035;52.094;5.112;2023-04-25T00:36:06;101222.44;;;7.13;100.00
62031;BME280;62035;52.094;5.112;2023-04-25T00:38:34;101219.56;;;7.16;100.00
62031;BME280;62035;52.094;5.112;2023-04-25T00:41:05;101219.66;;;7.15;100.00
62031;BME280;62035;52.094;5.112;2023-04-25T00:43:33;101215.88;;;6.95;100.00
62031;BME280;62035;52.094;5.112;2023-04-25T00:46:04;101212.03;;;6.99;100.00
62031;BME280;62035;52.094;5.112;2023-04-25T00:48:32;101214.66;;;6.88;100.00
62031;BME280;62035;52.094;5.112;2023-04-25T00:50:59;101216.13;;;6.92;100.00
62031;BME280;62035;52.094;5.112;2023-04-25T00:53:28;101204.31;;;6.85;100.00
62031;BME280;62035;52.094;5.112;2023-04-25T00:55:58;101212.16;;;6.97;100.00
62031;BME280;62035;52.094;5.112;2023-04-25T00:58:26;101211.50;;;6.83;100.00
62031;BME280;62035;52.094;5.112;2023-04-25T01:00:54;101215.72;;;6.74;100.00
62031;BME280;62035;52.094;5.112;2023-04-25T01:03:25;101216.91;;;6.81;100.00
62031;BME280;62035;52.094;5.112;2023-04-25T01:05:54;101224.84;;;6.70;100.00
62031;BME280;62035;52.094;5.112;2023-04-25T01:08:24;101227.94;;;6.64;100.00
62031;BME280;62035;52.094;5.112;2023-04-25T01:10:52;101216.63;;;6.62;100.00
62031;BME280;62035;52.094;5.112;2023-04-25T01:13:20;101223.50;;;6.64;100.00
62031;BME280;62035;52.094;5.112;2023-04-25T01:15:48;101225.13;;;6.54;100.00
62031;BME280;62035;52.094;5.112;2023-04-25T01:18:15;101225.34;;;6.51;100.00
62031;BME280;62035;52.094;5.112;2023-04-25T01:20:46;101227.16;;;6.51;100.00
62031;BME280;62035;52.094;5.112;2023-04-25T01:23:15;101222.03;;;6.60;100.00
62031;BME280;62035;52.094;5.112;2023-04-25T01:25:44;101223.09;;;6.58;100.00
62031;BME280;62035;52.094;5.112;2023-04-25T01:28:12;101226.19;;;6.52;100.00
62031;BME280;62035;52.094;5.112;2023-04-25T01:30:40;101231.81;;;6.47;100.00
62031;BME280;62035;52.094;5.112;2023-04-25T01:33:08;101238.28;;;6.43;100.00
62031;BME280;62035;52.094;5.112;2023-04-25T01:35:36;101237.84;;;6.49;100.00
62031;BME280;62035;52.094;5.112;2023-04-25T01:38:04;101237.56;;;6.41;100.00
62031;BME280;62035;52.094;5.112;2023-04-25T01:40:33;101241.91;;;6.42;100.00
62031;BME280;62035;52.094;5.112;2023-04-25T01:43:01;101242.75;;;6.43;100.00
62031;BME280;62035;52.094;5.112;2023-04-25T01:45:29;101244.09;;;6.48;100.00
62031;BME280;62035;52.094;5.112;2023-04-25T01:47:57;101245.75;;;6.38;100.00
62031;BME280;62035;52.094;5.112;2023-04-25T01:50:25;101247.03;;;6.32;100.00
62031;BME280;62035;52.094;5.112;2023-04-25T01:52:53;101255.38;;;6.39;100.00
62031;BME280;62035;52.094;5.112;2023-04-25T01:55:22;101257.50;;;6.34;100.00
62031;BME280;62035;52.094;5.112;2023-04-25T01:57:51;101266.09;;;6.25;100.00
62031;BME280;62035;52.094;5.112;2023-04-25T02:00:19;101269.88;;;6.33;100.00
62031;BME280;62035;52.094;5.112;2023-04-25T02:02:46;101264.41;;;6.24;100.00
62031;BME280;62035;52.094;5.112;2023-04-25T02:05:16;101261.84;;;6.35;100.00
62031;BME280;62035;52.094;5.112;2023-04-25T02:07:44;101263.03;;;6.42;100.00
62031;BME280;62035;52.094;5.112;2023-04-25T02:10:11;101265.25;;;6.48;100.00
62031;BME280;62035;52.094;5.112;2023-04-25T02:12:39;101269.56;;;6.49;100.00
62031;BME280;62035;52.094;5.112;2023-04-25T02:15:09;101270.50;;;6.37;100.00
62031;BME280;62035;52.094;5.112;2023-04-25T02:17:37;101262.81;;;6.45;100.00
62031;BME280;62035;52.094;5.112;2023-04-25T02:20:06;101263.34;;;6.50;100.00
62031;BME280;62035;52.094;5.112;2023-04-25T02:22:34;101269.56;;;6.49;100.00
62031;BME280;62035;52.094;5.112;2023-04-25T02:25:01;101259.56;;;6.42;100.00
62031;BME280;62035;52.094;5.112;2023-04-25T02:27:30;101263.09;;;6.53;100.00
62031;BME280;62035;52.094;5.112;2023-04-25T02:29:58;101270.63;;;6.47;100.00
62031;BME280;62035;52.094;5.112;2023-04-25T02:32:27;101258.88;;;6.51;100.00
62031;BME280;62035;52.094;5.112;2023-04-25T02:34:54;101253.81;;;6.48;100.00
62031;BME280;62035;52.094;5.112;2023-04-25T02:37:24;101260.41;;;6.66;100.00
62031;BME280;62035;52.094;5.112;2023-04-25T02:39:52;101259.16;;;6.59;100.00
62031;BME280;62035;52.094;5.112;2023-04-25T02:42:19;101263.34;;;6.74;100.00
62031;BME280;62035;52.094;5.112;2023-04-25T02:44:47;101256.50;;;6.83;100.00
62031;BME280;62035;52.094;5.112;2023-04-25T02:47:14;101259.63;;;6.88;100.00
62031;BME280;62035;52.094;5.112;2023-04-25T02:49:43;101257.72;;;6.90;100.00
62031;BME280;62035;52.094;5.112;2023-04-25T02:52:12;101260.59;;;6.87;100.00
62031;BME280;62035;52.094;5.112;2023-04-25T02:54:40;101256.88;;;6.89;100.00
62031;BME280;62035;52.094;5.112;2023-04-25T02:57:08;101259.63;;;6.88;100.00
62031;BME280;62035;52.094;5.112;2023-04-25T02:59:35;101266.00;;;6.85;100.00
62031;BME280;62035;52.094;5.112;2023-04-25T03:02:03;101261.94;;;6.92;100.00
62031;BME280;62035;52.094;5.112;2023-04-25T03:04:31;101271.22;;;6.98;100.00
62031;BME280;62035;52.094;5.112;2023-04-25T03:07:00;101265.94;;;6.98;100.00
62031;BME280;62035;52.094;5.112;2023-04-25T03:09:28;101264.28;;;7.08;100.00
62031;BME280;62035;52.094;5.112;2023-04-25T03:11:56;101261.41;;;7.22;100.00
62031;BME280;62035;52.094;5.112;2023-04-25T03:14:23;101269.34;;;7.22;100.00
62031;BME280;62035;52.094;5.112;2023-04-25T03:16:51;101277.91;;;7.26;100.00
62031;BME280;62035;52.094;5.112;2023-04-25T03:19:18;101283.41;;;7.23;100.00
62031;BME280;62035;52.094;5.112;2023-04-25T03:21:46;101308.03;;;7.01;100.00
62031;BME280;62035;52.094;5.112;2023-04-25T03:24:15;101321.63;;;6.73;100.00
62031;BME280;62035;52.094;5.112;2023-04-25T03:26:42;101318.09;;;6.61;100.00
62031;BME280;62035;52.094;5.112;2023-04-25T03:29:10;101309.47;;;6.10;100.00
62031;BME280;62035;52.094;5.112;2023-04-25T03:31:38;101305.75;;;6.12;100.00
62031;BME280;62035;52.094;5.112;2023-04-25T03:34:06;101283.34;;;6.05;100.00
62031;BME280;62035;52.094;5.112;2023-04-25T03:36:33;101286.69;;;5.96;100.00
62031;BME280;62035;52.094;5.112;2023-04-25T03:39:01;101274.69;;;6.16;100.00
62031;BME280;62035;52.094;5.112;2023-04-25T03:41:30;101280.47;;;6.45;100.00
62031;BME280;62035;52.094;5.112;2023-04-25T03:43:58;101277.72;;;6.46;100.00
62031;BME280;62035;52.094;5.112;2023-04-25T03:46:25;101278.31;;;6.62;100.00
62031;BME280;62035;52.094;5.112;2023-04-25T03:48:53;101272.34;;;6.72;100.00
62031;BME280;62035;52.094;5.112;2023-04-25T03:51:20;101289.19;;;6.82;100.00
62031;BME280;62035;52.094;5.112;2023-04-25T03:53:48;101287.78;;;6.89;100.00
62031;BME280;62035;52.094;5.112;2023-04-25T03:56:16;101280.34;;;6.94;100.00
62031;BME280;62035;52.094;5.112;2023-04-25T03:58:45;101299.13;;;7.02;100.00
62031;BME280;62035;52.094;5.112;2023-04-25T04:01:12;101292.28;;;6.99;100.00
62031;BME280;62035;52.094;5.112;2023-04-25T04:03:40;101298.63;;;6.97;100.00
62031;BME280;62035;52.094;5.112;2023-04-25T04:06:08;101303.16;;;6.84;100.00
62031;BME280;62035;52.094;5.112;2023-04-25T04:08:36;101310.25;;;6.83;100.00
62031;BME280;62035;52.094;5.112;2023-04-25T04:11:04;101310.84;;;6.87;100.00
62031;BME280;62035;52.094;5.112;2023-04-25T04:13:31;101313.00;;;6.82;100.00
62031;BME280;62035;52.094;5.112;2023-04-25T04:16:00;101312.16;;;6.81;100.00
62031;BME280;62035;52.094;5.112;2023-04-25T04:18:30;101320.91;;;6.71;100.00
62031;BME280;62035;52.094;5.112;2023-04-25T04:20:59;101324.53;;;6.57;100.00
62031;BME280;62035;52.094;5.112;2023-04-25T04:23:26;101328.06;;;6.45;100.00
62031;BME280;62035;52.094;5.112;2023-04-25T04:25:54;101333.31;;;6.33;100.00
62031;BME280;62035;52.094;5.112;2023-04-25T04:28:23;101334.78;;;6.38;100.00
62031;BME280;62035;52.094;5.112;2023-04-25T04:30:51;101338.03;;;6.41;100.00
62031;BME280;62035;52.094;5.112;2023-04-25T04:33:20;101341.50;;;6.42;100.00
62031;BME280;62035;52.094;5.112;2023-04-25T04:35:50;101343.78;;;6.35;100.00
62031;BME280;62035;52.094;5.112;2023-04-25T04:38:19;101345.00;;;6.42;100.00
62031;BME280;62035;52.094;5.112;2023-04-25T04:40:47;101343.78;;;6.59;100.00
62031;BME280;62035;52.094;5.112;2023-04-25T04:43:16;101349.31;;;6.56;100.00
62031;BME280;62035;52.094;5.112;2023-04-25T04:45:44;101347.38;;;6.58;100.00
62031;BME280;62035;52.094;5.112;2023-04-25T04:48:12;101346.72;;;6.67;100.00
62031;BME280;62035;52.094;5.112;2023-04-25T04:50:42;101345.16;;;6.64;100.00
62031;BME280;62035;52.094;5.112;2023-04-25T04:53:11;101355.06;;;6.74;100.00
62031;BME280;62035;52.094;5.112;2023-04-25T04:55:39;101348.94;;;6.73;100.00
62031;BME280;62035;52.094;5.112;2023-04-25T04:58:07;101358.47;;;6.87;100.00
62031;BME280;62035;52.094;5.112;2023-04-25T05:00:35;101362.59;;;6.91;100.00
62031;BME280;62035;52.094;5.112;2023-04-25T05:03:04;101362.59;;;6.91;100.00
62031;BME280;62035;52.094;5.112;2023-04-25T05:05:32;101364.78;;;6.97;100.00
62031;BME280;62035;52.094;5.112;2023-04-25T05:08:01;101368.56;;;7.06;100.00
62031;BME280;62035;52.094;5.112;2023-04-25T05:10:28;101373.19;;;7.15;100.00
62031;BME280;62035;52.094;5.112;2023-04-25T05:12:56;101364.28;;;7.27;100.00
62031;BME280;62035;52.094;5.112;2023-04-25T05:15:24;101367.69;;;7.29;100.00
62031;BME280;62035;52.094;5.112;2023-04-25T05:17:51;101362.66;;;7.37;100.00
62031;BME280;62035;52.094;5.112;2023-04-25T05:20:19;101377.47;;;7.40;100.00
62031;BME280;62035;52.094;5.112;2023-04-25T05:22:47;101378.34;;;7.16;100.00
62031;BME280;62035;52.094;5.112;2023-04-25T05:25:16;101385.81;;;7.22;100.00
62031;BME280;62035;52.094;5.112;2023-04-25T05:27:43;101383.91;;;7.24;100.00
62031;BME280;62035;52.094;5.112;2023-04-25T05:30:11;101390.88;;;7.25;100.00
62031;BME280;62035;52.094;5.112;2023-04-25T05:32:39;101388.75;;;7.30;100.00
62031;BME280;62035;52.094;5.112;2023-04-25T05:35:08;101391.09;;;7.11;100.00
62031;BME280;62035;52.094;5.112;2023-04-25T05:37:35;101374.34;;;7.11;100.00
62031;BME280;62035;52.094;5.112;2023-04-25T05:40:04;101384.91;;;7.34;100.00
62031;BME280;62035;52.094;5.112;2023-04-25T05:42:34;101393.63;;;7.48;100.00
62031;BME280;62035;52.094;5.112;2023-04-25T05:45:03;101394.53;;;7.35;100.00
62031;BME280;62035;52.094;5.112;2023-04-25T05:47:31;101388.84;;;7.64;100.00
62031;BME280;62035;52.094;5.112;2023-04-25T05:49:58;101392.00;;;7.34;100.00
62031;BME280;62035;52.094;5.112;2023-04-25T05:52:26;101394.84;;;7.55;100.00
62031;BME280;62035;52.094;5.112;2023-04-25T05:54:53;101401.59;;;7.59;100.00
62031;BME280;62035;52.094;5.112;2023-04-25T05:57:22;101409.19;;;7.63;100.00
62031;BME280;62035;52.094;5.112;2023-04-25T05:59:52;101408.59;;;7.71;100.00
62031;BME280;62035;52.094;5.112;2023-04-25T06:02:21;101410.06;;;7.75;100.00
62031;BME280;62035;52.094;5.112;2023-04-25T06:04:49;101405.13;;;7.82;100.00
62031;BME280;62035;52.094;5.112;2023-04-25T06:07:17;101406.00;;;7.93;100.00
62031;BME280;62035;52.094;5.112;2023-04-25T06:09:45;101402.75;;;8.12;100.00
62031;BME280;62035;52.094;5.112;2023-04-25T06:12:13;101412.28;;;8.26;100.00
62031;BME280;62035;52.094;5.112;2023-04-25T06:14:41;101417.09;;;8.21;100.00
62031;BME280;62035;52.094;5.112;2023-04-25T06:17:10;101423.75;;;8.26;100.00
62031;BME280;62035;52.094;5.112;2023-04-25T06:19:37;101420.25;;;8.26;100.00
62031;BME280;62035;52.094;5.112;2023-04-25T06:22:05;101424.94;;;8.22;100.00
62031;BME280;62035;52.094;5.112;2023-04-25T06:24:33;101420.47;;;8.23;100.00
62031;BME280;62035;52.094;5.112;2023-04-25T06:27:02;101428.66;;;8.09;100.00
62031;BME280;62035;52.094;5.112;2023-04-25T06:29:30;101418.31;;;7.94;100.00
62031;BME280;62035;52.094;5.112;2023-04-25T06:31:58;101430.25;;;8.22;100.00
62031;BME280;62035;52.094;5.112;2023-04-25T06:34:27;101432.47;;;8.40;100.00
62031;BME280;62035;52.094;5.112;2023-04-25T06:36:54;101434.50;;;8.47;100.00
62031;BME280;62035;52.094;5.112;2023-04-25T06:39:22;101442.94;;;8.52;100.00
62031;BME280;62035;52.094;5.112;2023-04-25T06:41:51;101442.69;;;8.66;100.00
62031;BME280;62035;52.094;5.112;2023-04-25T06:44:19;101447.69;;;9.03;100.00
62031;BME280;62035;52.094;5.112;2023-04-25T06:46:49;101445.25;;;9.11;100.00
62031;BME280;62035;52.094;5.112;2023-04-25T06:49:16;101446.34;;;9.41;100.00
62031;BME280;62035;52.094;5.112;2023-04-25T06:51:45;101452.59;;;9.51;100.00
62031;BME280;62035;52.094;5.112;2023-04-25T06:54:13;101457.22;;;9.90;100.00
62031;BME280;62035;52.094;5.112;2023-04-25T06:56:40;101447.84;;;10.17;100.00
62031;BME280;62035;52.094;5.112;2023-04-25T06:59:08;101452.94;;;9.99;100.00
62031;BME280;62035;52.094;5.112;2023-04-25T07:01:36;101455.19;;;10.03;100.00
62031;BME280;62035;52.094;5.112;2023-04-25T07:04:03;101457.16;;;9.81;100.00
62031;BME280;62035;52.094;5.112;2023-04-25T07:06:32;101452.81;;;9.80;100.00
62031;BME280;62035;52.094;5.112;2023-04-25T07:09:01;101449.88;;;9.83;100.00
62031;BME280;62035;52.094;5.112;2023-04-25T07:11:28;101449.50;;;9.87;100.00
62031;BME280;62035;52.094;5.112;2023-04-25T07:13:56;101458.94;;;10.01;100.00
62031;BME280;62035;52.094;5.112;2023-04-25T07:16:23;101456.16;;;10.02;100.00
62031;BME280;62035;52.094;5.112;2023-04-25T07:18:51;101447.81;;;9.86;100.00
62031;BME280;62035;52.094;5.112;2023-04-25T07:21:18;101460.25;;;9.65;100.00
62031;BME280;62035;52.094;5.112;2023-04-25T07:23:46;101456.63;;;9.66;100.00
62031;BME280;62035;52.094;5.112;2023-04-25T07:26:15;101469.53;;;9.70;100.00
62031;BME280;62035;52.094;5.112;2023-04-25T07:28:42;101469.13;;;9.54;100.00
62031;BME280;62035;52.094;5.112;2023-04-25T07:31:10;101477.84;;;9.02;100.00
62031;BME280;62035;52.094;5.112;2023-04-25T07:33:38;101485.69;;;9.03;100.00
62031;BME280;62035;52.094;5.112;2023-04-25T07:36:06;101477.72;;;9.03;100.00
62031;BME280;62035;52.094;5.112;2023-04-25T07:38:34;101491.44;;;9.20;100.00
62031;BME280;62035;52.094;5.112;2023-04-25T07:41:02;101486.66;;;9.46;100.00
62031;BME280;62035;52.094;5.112;2023-04-25T07:43:31;101495.50;;;9.67;100.00
62031;BME280;62035;52.094;5.112;2023-04-25T07:45:58;101491.47;;;9.52;100.00
62031;BME280;62035;52.094;5.112;2023-04-25T07:48:26;101496.19;;;9.80;100.00
62031;BME280;62035;52.094;5.112;2023-04-25T07:50:53;101494.56;;;9.89;100.00
62031;BME280;62035;52.094;5.112;2023-04-25T07:53:21;101494.59;;;9.57;100.00
62031;BME280;62035;52.094;5.112;2023-04-25T07:55:49;101484.13;;;9.44;100.00
62031;BME280;62035;52.094;5.112;2023-04-25T07:58:17;101495.38;;;9.36;100.00
62031;BME280;62035;52.094;5.112;2023-04-25T08:00:48;101508.28;;;9.41;100.00
62031;BME280;62035;52.094;5.112;2023-04-25T08:03:16;101509.66;;;9.24;100.00
62031;BME280;62035;52.094;5.112;2023-04-25T08:05:43;101507.94;;;9.34;100.00
62031;BME280;62035;52.094;5.112;2023-04-25T08:08:11;101509.13;;;9.42;100.00
62031;BME280;62035;52.094;5.112;2023-04-25T08:10:39;101515.28;;;9.53;100.00
62031;BME280;62035;52.094;5.112;2023-04-25T08:13:06;101521.19;;;9.57;100.00
62031;BME280;62035;52.094;5.112;2023-04-25T08:15:34;101522.88;;;9.58;100.00
62031;BME280;62035;52.094;5.112;2023-04-25T08:18:03;101516.84;;;9.45;100.00
62031;BME280;62035;52.094;5.112;2023-04-25T08:20:31;101517.44;;;9.59;100.00
62031;BME280;62035;52.094;5.112;2023-04-25T08:22:58;101534.56;;;9.87;100.00
62031;BME280;62035;52.094;5.112;2023-04-25T08:25:26;101534.88;;;10.26;100.00
62031;BME280;62035;52.094;5.112;2023-04-25T08:27:54;101523.06;;;10.70;100.00
62031;BME280;62035;52.094;5.112;2023-04-25T08:30:22;101532.84;;;11.00;100.00
62031;BME280;62035;52.094;5.112;2023-04-25T08:32:49;101532.94;;;10.89;100.00
62031;BME280;62035;52.094;5.112;2023-04-25T08:35:18;101535.88;;;10.86;100.00
62031;BME280;62035;52.094;5.112;2023-04-25T08:37:46;101547.06;;;11.10;100.00
62031;BME280;62035;52.094;5.112;2023-04-25T08:40:15;101542.94;;;10.96;100.00
62031;BME280;62035;52.094;5.112;2023-04-25T08:42:43;101547.84;;;10.40;100.00
62031;BME280;62035;52.094;5.112;2023-04-25T08:45:11;101562.09;;;10.60;100.00
62031;BME280;62035;52.094;5.112;2023-04-25T08:47:39;101551.97;;;10.75;100.00
62031;BME280;62035;52.094;5.112;2023-04-25T08:50:07;101551.13;;;10.84;100.00
62031;BME280;62035;52.094;5.112;2023-04-25T08:52:37;101568.34;;;10.70;100.00
62031;BME280;62035;52.094;5.112;2023-04-25T08:55:12;101576.31;;;10.70;100.00
62031;BME280;62035;52.094;5.112;2023-04-25T08:57:41;101571.28;;;11.07;100.00
62031;BME280;62035;52.094;5.112;2023-04-25T09:00:11;101573.53;;;11.52;100.00
62031;BME280;62035;52.094;5.112;2023-04-25T09:02:40;101575.47;;;11.50;100.00
62031;BME280;62035;52.094;5.112;2023-04-25T09:05:12;101577.31;;;11.49;100.00
62031;BME280;62035;52.094;5.112;2023-04-25T09:07:42;101583.84;;;11.35;100.00
62031;BME280;62035;52.094;5.112;2023-04-25T09:10:10;101585.59;;;11.06;100.00
62031;BME280;62035;52.094;5.112;2023-04-25T09:12:37;101587.53;;;11.04;100.00
62031;BME280;62035;52.094;5.112;2023-04-25T09:15:06;101585.28;;;10.69;100.00
62031;BME280;62035;52.094;5.112;2023-04-25T09:17:35;101596.41;;;10.84;100.00
62031;BME280;62035;52.094;5.112;2023-04-25T09:20:07;101604.25;;;11.06;100.00
62031;BME280;62035;52.094;5.112;2023-04-25T09:22:37;101610.09;;;11.40;100.00
62031;BME280;62035;52.094;5.112;2023-04-25T09:25:10;101600.41;;;11.89;98.57
62031;BME280;62035;52.094;5.112;2023-04-25T09:27:49;101602.38;;;11.87;99.93
62031;BME280;62035;52.094;5.112;2023-04-25T09:30:18;101593.94;;;12.11;99.25
62031;BME280;62035;52.094;5.112;2023-04-25T09:32:46;101602.09;;;12.85;99.58
62031;BME280;62035;52.094;5.112;2023-04-25T09:35:23;101608.19;;;12.77;100.00
62031;BME280;62035;52.094;5.112;2023-04-25T09:37:52;101610.53;;;12.80;82.46
62031;BME280;62035;52.094;5.112;2023-04-25T09:40:21;101610.94;;;12.95;83.32
62031;BME280;62035;52.094;5.112;2023-04-25T09:42:49;101624.38;;;12.56;84.92
62031;BME280;62035;52.094;5.112;2023-04-25T09:45:16;101631.72;;;12.16;89.05
62031;BME280;62035;52.094;5.112;2023-04-25T09:47:44;101631.19;;;11.53;100.00
62031;BME280;62035;52.094;5.112;2023-04-25T09:50:15;101648.41;;;10.78;100.00
62031;BME280;62035;52.094;5.112;2023-04-25T09:52:45;101655.31;;;10.28;100.00
62031;BME280;62035;52.094;5.112;2023-04-25T09:55:13;101654.44;;;9.95;100.00
62031;BME280;62035;52.094;5.112;2023-04-25T09:57:43;101657.81;;;9.97;100.00
62031;BME280;62035;52.094;5.112;2023-04-25T10:00:14;101663.75;;;10.33;100.00
62031;BME280;62035;52.094;5.112;2023-04-25T10:02:46;101664.88;;;10.51;100.00
62031;BME280;62035;52.094;5.112;2023-04-25T10:05:15;101668.25;;;10.53;100.00
62031;BME280;62035;52.094;5.112;2023-04-25T10:07:43;101665.53;;;10.64;100.00
62031;BME280;62035;52.094;5.112;2023-04-25T10:10:12;101660.66;;;10.69;100.00
62031;BME280;62035;52.094;5.112;2023-04-25T10:12:42;101672.66;;;10.64;100.00
62031;BME280;62035;52.094;5.112;2023-04-25T10:15:12;101675.13;;;10.97;100.00
62031;BME280;62035;52.094;5.112;2023-04-25T10:17:42;101659.91;;;11.09;100.00
62031;BME280;62035;52.094;5.112;2023-04-25T10:20:11;101660.91;;;11.48;100.00
62031;BME280;62035;52.094;5.112;2023-04-25T10:22:41;101665.00;;;11.52;100.00
62031;BME280;62035;52.094;5.112;2023-04-25T10:25:12;101661.41;;;11.73;100.00
62031;BME280;62035;52.094;5.112;2023-04-25T10:27:43;101651.06;;;11.39;100.00
62031;BME280;62035;52.094;5.112;2023-04-25T10:30:14;101659.31;;;11.76;100.00
62031;BME280;62035;52.094;5.112;2023-04-25T10:32:43;101665.03;;;11.72;100.00
62031;BME280;62035;52.094;5.112;2023-04-25T10:35:14;101658.72;;;11.73;100.00
62031;BME280;62035;52.094;5.112;2023-04-25T10:37:56;101666.78;;;11.82;100.00
62031;BME280;62035;52.094;5.112;2023-04-25T10:40:25;101671.16;;;11.83;100.00
62031;BME280;62035;52.094;5.112;2023-04-25T10:42:55;101665.84;;;11.62;100.00
62031;BME280;62035;52.094;5.112;2023-04-25T10:45:23;101665.88;;;11.72;100.00
62031;BME280;62035;52.094;5.112;2023-04-25T10:47:50;101663.31;;;11.61;100.00
62031;BME280;62035;52.094;5.112;2023-04-25T10:50:18;101662.44;;;12.00;99.86
62031;BME280;62035;52.094;5.112;2023-04-25T10:52:45;101667.25;;;12.26;100.00
62031;BME280;62035;52.094;5.112;2023-04-25T10:55:13;101664.47;;;12.27;100.00
62031;BME280;62035;52.094;5.112;2023-04-25T10:57:41;101656.44;;;12.47;98.49
62031;BME280;62035;52.094;5.112;2023-04-25T11:00:15;101667.97;;;12.18;100.00
62031;BME280;62035;52.094;5.112;2023-04-25T11:02:46;101659.09;;;11.89;100.00
62031;BME280;62035;52.094;5.112;2023-04-25T11:05:33;101669.72;;;11.79;100.00
62031;BME280;62035;52.094;5.112;2023-04-25T11:08:10;101664.72;;;12.15;97.59
62031;BME280;62035;52.094;5.112;2023-04-25T11:10:40;101667.53;;;12.23;96.99
62031;BME280;62035;52.094;5.112;2023-04-25T11:13:08;101679.03;;;12.14;100.00
62031;BME280;62035;52.094;5.112;2023-04-25T11:15:37;101693.47;;;11.82;100.00
62031;BME280;62035;52.094;5.112;2023-04-25T11:18:04;101674.44;;;12.25;100.00
62031;BME280;62035;52.094;5.112;2023-04-25T11:20:32;101674.69;;;12.13;100.00
62031;BME280;62035;52.094;5.112;2023-04-25T11:22:59;101679.22;;;12.31;100.00
62031;BME280;62035;52.094;5.112;2023-04-25T11:25:27;101676.38;;;12.23;100.00
62031;BME280;62035;52.094;5.112;2023-04-25T11:27:57;101687.59;;;11.88;100.00
62031;BME280;62035;52.094;5.112;2023-04-25T11:30:28;101675.22;;;11.87;100.00
62031;BME280;62035;52.094;5.112;2023-04-25T11:32:57;101695.03;;;11.54;100.00
62031;BME280;62035;52.094;5.112;2023-04-25T11:35:25;101683.25;;;11.57;100.00
62031;BME280;62035;52.094;5.112;2023-04-25T11:37:53;101696.69;;;10.94;100.00
62031;BME280;62035;52.094;5.112;2023-04-25T11:40:20;101700.22;;;11.25;100.00
62031;BME280;62035;52.094;5.112;2023-04-25T11:42:48;101702.34;;;11.92;100.00
62031;BME280;62035;52.094;5.112;2023-04-25T11:45:15;101694.63;;;12.18;100.00
62031;BME280;62035;52.094;5.112;2023-04-25T11:47:44;101704.28;;;11.90;100.00
62031;BME280;62035;52.094;5.112;2023-04-25T11:50:13;101715.47;;;11.44;100.00
62031;BME280;62035;52.094;5.112;2023-04-25T11:52:43;101728.06;;;10.91;100.00
62031;BME280;62035;52.094;5.112;2023-04-25T11:55:13;101730.66;;;10.81;100.00
62031;BME280;62035;52.094;5.112;2023-04-25T11:57:43;101727.13;;;10.81;100.00
62031;BME280;62035;52.094;5.112;2023-04-25T12:00:14;101724.47;;;10.81;100.00
62031;BME280;62035;52.094;5.112;2023-04-25T12:02:45;101726.38;;;10.90;100.00
62031;BME280;62035;52.094;5.112;2023-04-25T12:05:15;101740.91;;;10.86;100.00
62031;BME280;62035;52.094;5.112;2023-04-25T12:07:43;101730.06;;;10.98;100.00
62031;BME280;62035;52.094;5.112;2023-04-25T12:10:12;101740.16;;;10.95;100.00
62031;BME280;62035;52.094;5.112;2023-04-25T12:12:44;101746.69;;;11.32;100.00
62031;BME280;62035;52.094;5.112;2023-04-25T12:15:14;101740.44;;;11.22;100.00
62031;BME280;62035;52.094;5.112;2023-04-25T12:17:45;101743.72;;;11.05;100.00
62031;BME280;62035;52.094;5.112;2023-04-25T12:20:16;101742.44;;;11.51;100.00
62031;BME280;62035;52.094;5.112;2023-04-25T12:22:46;101731.84;;;11.70;100.00
62031;BME280;62035;52.094;5.112;2023-04-25T12:25:33;101738.44;;;12.16;100.00
62031;BME280;62035;52.094;5.112;2023-04-25T12:28:17;101736.88;;;13.29;97.64
62031;BME280;62035;52.094;5.112;2023-04-25T12:30:53;101726.13;;;13.48;87.69
62031;BME280;62035;52.094;5.112;2023-04-25T12:33:22;101728.41;;;13.43;86.32
62031;BME280;62035;52.094;5.112;2023-04-25T12:35:52;101720.34;;;13.80;85.53
62031;BME280;62035;52.094;5.112;2023-04-25T12:38:23;101721.09;;;14.18;81.31
62031;BME280;62035;52.094;5.112;2023-04-25T12:40:52;101737.31;;;13.15;88.69
62031;BME280;62035;52.094;5.112;2023-04-25T12:43:20;101736.69;;;12.64;90.95
62031;BME280;62035;52.094;5.112;2023-04-25T12:45:48;101741.97;;;12.16;93.51
62031;BME280;62035;52.094;5.112;2023-04-25T12:48:16;101732.50;;;13.38;84.38
62031;BME280;62035;52.094;5.112;2023-04-25T12:50:45;101733.16;;;13.49;81.34
62031;BME280;62035;52.094;5.112;2023-04-25T12:53:16;101740.19;;;12.55;85.02
62031;BME280;62035;52.094;5.112;2023-04-25T12:55:43;101739.47;;;12.24;91.89